createdAt,value
2023-03-12T00:00:17.856Z,74
2023-03-12T00:30:09.101Z,75
2023-03-12T01:00:22.201Z,76
2023-03-12T01:30:03.711Z,77
2023-03-12T02:00:25.401Z,73
2023-03-12T02:30:28.295Z,77
2023-03-12T03:00:05.827Z,77
2023-03-12T03:30:20.731Z,78
2023-03-12T04:00:04.870Z,75
2023-03-12T04:30:25.791Z,75
2023-03-12T05:00:28.422Z,81
2023-03-12T05:30:10.735Z,85
2023-03-12T06:00:23.667Z,87
2023-03-12T06:30:05.566Z,87
2023-03-12T07:00:08.627Z,88
2023-03-12T07:30:19.660Z,90
2023-03-12T08:00:29.574Z,90
2023-03-12T08:30:09.862Z,90
2023-03-12T09:00:24.146Z,89
2023-03-12T09:30:15.992Z,88
2023-03-12T10:00:08.055Z,88
2023-03-12T10:30:29.330Z,86
2023-03-12T11:00:02.813Z,84
2023-03-12T11:30:14.940Z,78
2023-03-12T12:00:27.311Z,78
2023-03-12T12:30:15.722Z,80
2023-03-12T13:00:26.537Z,83
2023-03-12T13:30:29.669Z,83
2023-03-12T14:00:21.313Z,75
2023-03-12T14:30:23.919Z,65
2023-03-12T15:00:16.449Z,66
2023-03-12T15:30:19.632Z,71
2023-03-12T16:00:10.392Z,66
2023-03-12T16:30:23.870Z,67
2023-03-12T17:00:01.034Z,68
2023-03-12T17:30:26.965Z,70
2023-03-12T18:00:18.010Z,71
2023-03-12T18:30:20.672Z,72
2023-03-12T19:00:02.305Z,73
2023-03-12T19:30:05.340Z,75
2023-03-12T20:00:27.236Z,77
2023-03-12T20:30:10.188Z,76
2023-03-12T21:00:21.471Z,75
2023-03-12T21:30:23.140Z,74
2023-03-12T22:00:01.900Z,73
2023-03-12T22:30:14.342Z,72
2023-03-12T23:00:06.395Z,72
2023-03-12T23:30:07.726Z,72
